Time;durP1;ratioP1;P1;durP2;ratioP2;P2;SDS_P1;SDS_P2;PMS_P1;PMS_P2;Temp;Humidity;BMP_temperature;BMP_pressure;BME280_temperature;BME280_humidity;BME280_pressure;Samples;Min_cycle;Max_cycle;Signal;HPM_P1;HPM_P2
2023/05/26 03:28:54;;;;;;;;;;;;;;;5.13;100.00;100392.09;6136992;22;2019746;-85
2023/05/26 03:31:20;;;;;;;;;;;;;;;5.17;100.00;100391.19;6187898;23;19920;-85
2023/05/26 03:33:45;;;;;;;;;;;;;;;5.17;100.00;100393.81;6214549;23;19916;-84
2023/05/26 03:36:10;;;;;;;;;;;;;;;5.23;100.00;100388.50;6214386;23;19917;-84
2023/05/26 03:38:35;;;;;;;;;;;;;;;5.22;100.00;100396.41;6187917;23;19916;-84
2023/05/26 03:41:01;;;;;;;;;;;;;;;5.18;100.00;100392.91;6212620;23;20333;-86
2023/05/26 03:43:26;;;;;;;;;;;;;;;5.16;100.00;100391.19;6214434;23;19920;-85
2023/05/26 03:45:54;;;;;;;;;;;;;;;5.17;100.00;100392.91;6187902;23;19916;-86
2023/05/26 03:48:21;;;;;;;;;;;;;;;5.18;100.00;100387.66;6216275;23;19919;-87
2023/05/26 03:50:47;;;;;;;;;;;;;;;5.19;100.00;100386.78;6189955;23;19916;-85
2023/05/26 03:53:13;;;;;;;;;;;;;;;5.14;100.00;100382.44;6190044;23;19916;-86
2023/05/26 03:55:48;;;;;;;;;;;;;;;;;;;;;
2023/05/26 03:58:16;;;;;;;;;;;;;;;5.15;100.00;100392.94;6216567;23;20010;-88
2023/05/26 04:01:12;;;;;;;;;;;;;;;5.18;100.00;100395.53;6189942;23;19916;-87
2023/05/26 04:03:37;;;;;;;;;;;;;;;5.24;100.00;100400.72;6216022;23;19916;-86
2023/05/26 04:06:03;;;;;;;;;;;;;;;5.19;100.00;100402.53;6215990;23;19922;-84
2023/05/26 04:08:28;;;;;;;;;;;;;;;5.11;100.00;100404.38;6189460;23;19923;-85
2023/05/26 04:10:54;;;;;;;;;;;;;;;5.15;100.00;100399.97;6214556;23;19916;-84
2023/05/26 04:13:19;;;;;;;;;;;;;;;5.08;100.00;100399.16;6215943;23;20235;-85
2023/05/26 04:15:45;;;;;;;;;;;;;;;5.11;100.00;100403.53;6215987;23;19920;-84
2023/05/26 04:18:10;;;;;;;;;;;;;;;5.16;100.00;100401.72;6189420;23;19918;-85
2023/05/26 04:20:36;;;;;;;;;;;;;;;5.15;100.00;100411.34;6215692;23;19974;-85
2023/05/26 04:23:01;;;;;;;;;;;;;;;5.21;100.00;100408.63;6216045;23;19943;-85
2023/05/26 04:25:27;;;;;;;;;;;;;;;5.28;100.00;100402.44;6188072;23;20227;-86
2023/05/26 04:27:56;;;;;;;;;;;;;;;5.20;100.00;100417.44;6215748;23;19916;-85
2023/05/26 04:30:22;;;;;;;;;;;;;;;5.19;100.00;100413.06;6215864;23;19912;-87
2023/05/26 04:32:50;;;;;;;;;;;;;;;5.20;100.00;100420.06;6189578;23;20027;-85
2023/05/26 04:35:17;;;;;;;;;;;;;;;5.22;100.00;100418.28;6215740;23;20443;-84
2023/05/26 04:37:42;;;;;;;;;;;;;;;5.24;100.00;100419.13;6215590;23;20247;-84
2023/05/26 04:40:09;;;;;;;;;;;;;;;5.26;100.00;100414.75;6189093;23;19991;-85
2023/05/26 06:47:58;;;;;;;;;;;;;;;5.31;100.00;100463.72;6176302;23;19955;-84
2023/05/26 06:50:23;;;;;;;;;;;;;;;5.24;100.00;100462.94;6183060;23;19916;-84
2023/05/26 06:52:48;;;;;;;;;;;;;;;5.25;100.00;100460.28;6158540;23;19939;-84
2023/05/26 06:55:14;;;;;;;;;;;;;;;5.26;100.00;100466.41;6155298;23;19940;-84
2023/05/26 06:57:39;;;;;;;;;;;;;;;5.34;100.00;100461.94;6156614;23;19912;-84
2023/05/26 07:00:05;;;;;;;;;;;;;;;5.28;100.00;100462.88;6182827;23;19912;-84
2023/05/26 07:02:31;;;;;;;;;;;;;;;5.31;100.00;100463.72;6181855;23;19920;-84
2023/05/26 07:04:56;;;;;;;;;;;;;;;5.39;100.00;100459.25;6183688;23;20328;-84
2023/05/26 07:07:22;;;;;;;;;;;;;;;5.43;100.00;100459.22;6158377;23;19963;-84
2023/05/26 07:09:47;;;;;;;;;;;;;;;5.39;100.00;100459.25;6183368;23;19916;-86
2023/05/26 07:12:12;;;;;;;;;;;;;;;5.40;100.00;100458.38;6181995;23;20291;-84
2023/05/26 07:14:38;;;;;;;;;;;;;;;5.38;100.00;100460.16;6156847;23;19923;-84
2023/05/26 07:17:03;;;;;;;;;;;;;;;5.47;100.00;100465.28;6182397;23;19915;-83
2023/05/26 07:19:28;;;;;;;;;;;;;;;5.50;100.00;100472.28;6157383;23;19916;-83
2023/05/26 07:21:54;;;;;;;;;;;;;;;5.51;100.00;100466.16;6157175;23;20003;-84
2023/05/26 07:24:21;;;;;;;;;;;;;;;5.47;100.00;100473.19;6184658;23;20347;-84
2023/05/26 07:26:47;;;;;;;;;;;;;;;5.43;100.00;100469.72;6185825;23;19912;-83
2023/05/26 07:29:12;;;;;;;;;;;;;;;5.37;100.00;100466.28;6159110;23;19919;-84
2023/05/26 07:31:37;;;;;;;;;;;;;;;5.40;100.00;100464.50;6184244;23;20003;-84
2023/05/26 07:34:03;;;;;;;;;;;;;;;5.45;100.00;100467.06;6159986;23;19920;-84
2023/05/26 07:36:28;;;;;;;;;;;;;;;5.47;100.00;100470.56;6159273;23;19923;-84
2023/05/26 07:38:53;;;;;;;;;;;;;;;5.53;100.00;100467.84;6184810;23;19912;-83
2023/05/26 07:41:19;;;;;;;;;;;;;;;5.48;100.00;100461.78;6182461;23;20003;-84
2023/05/26 07:43:44;;;;;;;;;;;;;;;5.58;100.00;100462.56;6158316;23;20272;-83
2023/05/26 07:46:10;;;;;;;;;;;;;;;5.57;100.00;100461.69;6157557;23;19916;-86
2023/05/26 07:48:36;;;;;;;;;;;;;;;5.50;100.00;100454.75;6158719;23;19991;-84
2023/05/26 07:51:01;;;;;;;;;;;;;;;5.54;100.00;100455.59;6186437;23;20236;-84
2023/05/26 07:53:26;;;;;;;;;;;;;;;5.54;100.00;100459.09;6185701;23;19912;-84
2023/05/26 07:55:51;;;;;;;;;;;;;;;5.52;100.00;100458.25;6159744;23;20332;-84
2023/05/26 07:58:17;;;;;;;;;;;;;;;5.45;100.00;100446.91;6186122;23;19917;-84
2023/05/26 08:00:42;;;;;;;;;;;;;;;5.42;100.00;100446.94;6157995;23;19916;-84
2023/05/26 08:03:07;;;;;;;;;;;;;;;5.52;100.00;100453.00;6185638;23;19916;-84
2023/05/26 08:05:33;;;;;;;;;;;;;;;5.49;100.00;100454.75;6183535;23;19916;-84
2023/05/26 08:07:58;;;;;;;;;;;;;;;5.43;100.00;100453.09;6185992;23;19913;-85
2023/05/26 08:10:23;;;;;;;;;;;;;;;5.41;100.00;100447.00;6186389;23;20343;-84
2023/05/26 08:12:50;;;;;;;;;;;;;;;5.36;100.00;100446.16;6185981;23;19995;-84
2023/05/26 08:15:16;;;;;;;;;;;;;;;5.38;100.00;100455.78;6186172;23;19912;-84
2023/05/26 08:17:42;;;;;;;;;;;;;;;5.40;100.00;100453.97;6184353;23;19963;-84
2023/05/26 08:20:10;;;;;;;;;;;;;;;5.37;100.00;100451.38;6159512;23;19919;-86
2023/05/26 08:22:35;;;;;;;;;;;;;;;5.38;100.00;100453.13;6185787;23;20240;-84
2023/05/26 08:25:00;;;;;;;;;;;;;;;5.41;100.00;100455.75;6185959;23;19912;-84
2023/05/26 08:27:26;;;;;;;;;;;;;;;5.40;100.00;100445.25;6159731;23;19943;-85
2023/05/26 08:29:51;;;;;;;;;;;;;;;5.39;100.00;100451.38;6186396;23;20303;-84
2023/05/26 08:32:16;;;;;;;;;;;;;;;5.50;100.00;100457.38;6184004;23;19912;-86
2023/05/26 08:34:44;;;;;;;;;;;;;;;5.41;100.00;100454.88;6159476;23;19916;-85
2023/05/26 08:37:11;;;;;;;;;;;;;;;5.37;100.00;100448.75;6186051;23;19935;-84
2023/05/26 08:39:37;;;;;;;;;;;;;;;5.36;100.00;100451.41;6185829;23;19916;-85
2023/05/26 08:42:08;;;;;;;;;;;;;;;5.38;100.00;100450.50;6159251;23;20019;-84
2023/05/26 08:44:35;;;;;;;;;;;;;;;5.40;100.00;100453.13;6186079;23;19928;-85
2023/05/26 08:47:02;;;;;;;;;;;;;;;5.40;100.00;100447.88;6184096;23;19991;-84
2023/05/26 08:49:31;;;;;;;;;;;;;;;5.40;100.00;100442.59;6159436;23;19918;-87
2023/05/26 08:52:02;;;;;;;;;;;;;;;15.95;100.00;100417.00;6186162;23;19994;-86
2023/05/26 08:54:27;;;;;;;;;;;;;;;13.53;100.00;100414.81;6159232;23;19916;-86
2023/05/26 08:56:53;;;;;;;;;;;;;;;8.59;100.00;100436.19;6185789;23;19927;-84
2023/05/26 08:59:19;;;;;;;;;;;;;;;7.31;100.00;100439.78;6185565;23;19916;-89
2023/05/26 09:01:47;;;;;;;;;;;;;;;6.88;100.00;100441.41;6183913;23;20307;-88
2023/05/26 09:04:13;;;;;;;;;;;;;;;6.63;100.00;100435.69;6159324;23;19912;-88
2023/05/26 09:06:41;;;;;;;;;;;;;;;6.50;100.00;100444.69;6185587;23;19974;-86
2023/05/26 09:09:07;;;;;;;;;;;;;;;6.34;100.00;100436.16;6185501;23;20332;-87
2023/05/26 09:11:33;;;;;;;;;;;;;;;6.22;100.00;100434.56;6185459;23;19939;-87
2023/05/26 09:14:08;;;;;;;;;;;;;;;6.10;100.00;100434.75;6158998;23;19920;-88
2023/05/26 09:16:33;;;;;;;;;;;;;;;6.03;100.00;100433.09;6183878;23;20225;-87
2023/05/26 09:19:02;;;;;;;;;;;;;;;6.02;100.00;100444.53;6159037;23;19919;-89
2023/05/26 09:21:36;;;;;;;;;;;;;;;5.98;100.00;100441.94;6185542;23;19916;-87
2023/05/26 09:24:02;;;;;;;;;;;;;;;5.99;100.00;100448.91;6159052;23;20513;-86
2023/05/26 09:26:38;;;;;;;;;;;;;;;5.93;100.00;100448.09;6159152;23;19916;-87
2023/05/26 09:29:05;;;;;;;;;;;;;;;5.95;100.00;100452.47;6185397;23;19916;-87
2023/05/26 09:31:44;;;;;;;;;;;;;;;5.86;100.00;100446.47;6183598;23;19954;-86
2023/05/26 09:34:10;;;;;;;;;;;;;;;5.88;100.00;100452.56;6159203;23;20000;-87
2023/05/26 09:36:36;;;;;;;;;;;;;;;5.80;100.00;100450.88;6159231;23;19919;-86
2023/05/26 09:39:14;;;;;;;;;;;;;;;5.80;100.00;100452.66;6185149;23;19912;-87
2023/05/26 09:41:40;;;;;;;;;;;;;;;5.83;100.00;100455.25;6158630;23;19916;-87
2023/05/26 09:44:09;;;;;;;;;;;;;;;5.81;100.00;100454.41;6158740;23;19913;-87
2023/05/26 09:46:35;;;;;;;;;;;;;;;5.86;100.00;100452.56;6157058;23;20282;-87
2023/05/26 09:49:02;;;;;;;;;;;;;;;5.82;100.00;100462.28;6184976;23;19940;-87
2023/05/26 09:51:33;;;;;;;;;;;;;;;5.74;100.00;100458.84;6185014;23;19947;-88
2023/05/26 09:54:01;;;;;;;;;;;;;;;5.76;100.00;100461.44;6185497;23;19920;-87
2023/05/26 09:56:29;;;;;;;;;;;;;;;5.73;100.00;100457.13;6184980;23;19958;-88
2023/05/26 09:58:57;;;;;;;;;;;;;;;5.75;100.00;100459.72;6185153;23;19991;-86
2023/05/26 10:01:30;;;;;;;;;;;;;;;5.84;100.00;100457.00;6157299;23;20177;-84
2023/05/26 10:03:56;;;;;;;;;;;;;;;5.74;100.00;100453.59;6185100;23;20281;-87
2023/05/26 10:06:22;;;;;;;;;;;;;;;5.88;100.00;100445.53;6185282;23;19919;-87
2023/05/26 10:08:56;;;;;;;;;;;;;;;5.83;100.00;100447.34;6185276;23;19916;-88
2023/05/26 10:11:22;;;;;;;;;;;;;;;5.71;100.00;100445.75;6184901;23;19912;-87
2023/05/26 10:13:50;;;;;;;;;;;;;;;5.79;100.00;100453.53;6184895;23;19983;-86
2023/05/26 10:16:15;;;;;;;;;;;;;;;5.81;100.00;100451.78;6156827;23;19916;-84
2023/05/26 10:18:40;;;;;;;;;;;;;;;5.71;100.00;100458.91;6184927;23;19970;-85
2023/05/26 10:21:19;;;;;;;;;;;;;;;5.68;100.00;100448.44;6184772;23;19987;-86
2023/05/26 10:23:49;;;;;;;;;;;;;;;5.75;100.00;100438.69;6184647;23;19958;-84
2023/05/26 10:26:23;;;;;;;;;;;;;;;5.72;100.00;100438.72;6158756;23;19912;-87
2023/05/26 10:29:02;;;;;;;;;;;;;;;5.75;100.00;100443.97;6158528;23;20288;-83
2023/05/26 10:31:29;;;;;;;;;;;;;;;5.74;100.00;100437.81;6183221;23;19947;-85
2023/05/26 10:33:54;;;;;;;;;;;;;;;5.89;100.00;100446.38;6184733;23;19916;-85
2023/05/26 10:36:22;;;;;;;;;;;;;;;5.71;100.00;100439.59;6184650;23;19946;-86
2023/05/26 10:38:49;;;;;;;;;;;;;;;5.77;100.00;100445.66;6185266;23;19912;-87
2023/05/26 10:41:50;;;;;;;;;;;;;;;5.88;100.00;100436.78;6184694;23;19999;-86
2023/05/26 10:44:34;;;;;;;;;;;;;;;5.90;100.00;100437.63;6184490;23;20235;-85
2023/05/26 10:47:05;;;;;;;;;;;;;;;5.86;100.00;100442.06;6183421;23;19952;-85
2023/05/26 10:49:36;;;;;;;;;;;;;;;5.79;100.00;100435.13;6185239;23;19994;-86
2023/05/26 10:52:14;;;;;;;;;;;;;;;5.86;100.00;100434.16;6184858;23;19990;-84
2023/05/26 10:54:40;;;;;;;;;;;;;;;5.73;100.00;100429.97;6158667;23;19913;-86
2023/05/26 10:57:25;;;;;;;;;;;;;;;5.73;100.00;100427.34;6158172;23;19912;-85
2023/05/26 10:59:52;;;;;;;;;;;;;;;5.81;100.00;100436.00;6158001;23;20343;-85
2023/05/26 11:02:20;;;;;;;;;;;;;;;5.75;100.00;100429.03;6156435;23;19919;-84
2023/05/26 11:04:46;;;;;;;;;;;;;;;5.69;100.00;100431.75;6158549;23;19947;-84
2023/05/26 11:07:26;;;;;;;;;;;;;;;5.68;100.00;100431.75;6184521;23;19912;-85
2023/05/26 11:09:56;;;;;;;;;;;;;;;5.81;100.00;100436.00;6184492;23;19912;-86
2023/05/26 11:12:22;;;;;;;;;;;;;;;5.74;100.00;100431.69;6184674;23;19950;-87
2023/05/26 11:14:47;;;;;;;;;;;;;;;5.76;100.00;100433.41;6184575;23;19939;-85
2023/05/26 11:17:17;;;;;;;;;;;;;;;5.77;100.00;100424.63;6182985;23;19912;-89
2023/05/26 11:19:55;;;;;;;;;;;;;;;5.88;100.00;100429.75;6184666;23;19998;-86
2023/05/26 11:22:31;;;;;;;;;;;;;;;;;;;;;
2023/05/26 11:24:57;;;;;;;;;;;;;;;5.75;100.00;100417.66;6184595;23;20030;-85
2023/05/26 11:27:23;;;;;;;;;;;;;;;5.73;100.00;100420.31;6157983;23;19953;-87
2023/05/26 11:29:59;;;;;;;;;;;;;;;5.75;100.00;100412.41;6185058;23;19944;-85
2023/05/26 11:32:25;;;;;;;;;;;;;;;5.79;100.00;100414.97;6182895;23;19923;-88
2023/05/26 11:34:50;;;;;;;;;;;;;;;7.35;100.00;100414.22;6184671;23;20272;-87
2023/05/26 11:37:19;;;;;;;;;;;;;;;6.32;100.00;100415.13;6158363;23;19916;-87
2023/05/26 11:39:45;;;;;;;;;;;;;;;6.13;100.00;100413.66;6157987;23;19916;-86
2023/05/26 11:42:10;;;;;;;;;;;;;;;5.97;100.00;100399.88;6184253;23;19967;-83
2023/05/26 11:44:37;;;;;;;;;;;;;;;6.10;100.00;100413.72;6184323;23;20391;-88
2023/05/26 11:47:14;;;;;;;;;;;;;;;5.94;100.00;100410.41;6156073;23;19918;-89
2023/05/26 11:49:47;;;;;;;;;;;;;;;5.91;100.00;100408.66;6184211;23;20375;-86
2023/05/26 11:52:16;;;;;;;;;;;;;;;6.06;100.00;100412.84;6184567;23;20279;-86
2023/05/26 11:54:41;;;;;;;;;;;;;;;5.97;100.00;100418.28;6157793;23;19920;-85
2023/05/26 11:57:24;;;;;;;;;;;;;;;5.88;100.00;100405.22;6184425;23;19923;-86
2023/05/26 11:59:53;;;;;;;;;;;;;;;5.81;100.00;100405.28;6184348;23;19919;-86
2023/05/26 12:02:23;;;;;;;;;;;;;;;5.88;100.00;100403.44;6182491;23;20279;-86
2023/05/26 12:04:49;;;;;;;;;;;;;;;5.89;100.00;100396.41;6184137;23;19920;-85
2023/05/26 12:07:27;;;;;;;;;;;;;;;5.98;100.00;100399.84;6184637;23;19971;-84
2023/05/26 12:10:05;;;;;;;;;;;;;;;5.84;100.00;100399.13;6159855;23;20335;-87
2023/05/26 12:12:47;;;;;;;;;;;;;;;5.73;100.00;100398.41;6185985;23;20236;-86
2023/05/26 12:15:20;;;;;;;;;;;;;;;5.87;100.00;100399.09;6159700;23;19987;-86
2023/05/26 12:17:52;;;;;;;;;;;;;;;5.88;100.00;100395.56;6158252;23;20332;-86
2023/05/26 12:20:23;;;;;;;;;;;;;;;5.81;100.00;100391.28;6185884;23;19913;-85
2023/05/26 12:22:59;;;;;;;;;;;;;;;5.82;100.00;100395.63;6186249;23;19938;-86
2023/05/26 12:25:29;;;;;;;;;;;;;;;5.78;100.00;100396.59;6159924;23;19912;-87
2023/05/26 12:27:57;;;;;;;;;;;;;;;5.84;100.00;100396.50;6185881;23;20386;-86
2023/05/26 12:30:26;;;;;;;;;;;;;;;6.00;100.00;100397.19;6185759;23;20252;-85
2023/05/26 12:32:54;;;;;;;;;;;;;;;5.83;100.00;100373.72;6184073;23;19968;-85
2023/05/26 12:35:25;;;;;;;;;;;;;;;5.87;100.00;100391.19;6186131;23;19944;-86
2023/05/26 12:37:50;;;;;;;;;;;;;;;5.92;100.00;100386.75;6186176;23;19927;-86
2023/05/26 12:40:18;;;;;;;;;;;;;;;5.90;100.00;100380.59;6185943;23;19913;-86
2023/05/26 12:42:46;;;;;;;;;;;;;;;5.78;100.00;100375.53;6185649;23;20337;-86
2023/05/26 12:45:13;;;;;;;;;;;;;;;5.82;100.00;100372.84;6185709;23;19964;-87
2023/05/26 12:47:48;;;;;;;;;;;;;;;;;;;;;
2023/05/26 12:50:17;;;;;;;;;;;;;;;5.79;100.00;100377.25;6155870;23;19999;-87
2023/05/26 12:52:48;;;;;;;;;;;;;;;5.72;100.00;100371.22;6154541;23;20400;-88
2023/05/26 12:55:34;;;;;;;;;;;;;;;5.82;100.00;100371.97;6155980;23;19913;-86
2023/05/26 12:57:59;;;;;;;;;;;;;;;6.03;100.00;100372.56;6155007;23;19981;-86
2023/05/26 13:00:28;;;;;;;;;;;;;;;5.93;100.00;100374.44;6155554;23;19959;-86
2023/05/26 13:02:53;;;;;;;;;;;;;;;5.85;100.00;100366.66;6152597;23;20329;-86
2023/05/26 13:05:21;;;;;;;;;;;;;;;5.83;100.00;100364.06;6155902;23;19913;-86
2023/05/26 13:07:46;;;;;;;;;;;;;;;5.78;100.00;100363.25;6156139;23;20236;-87
2023/05/26 13:10:11;;;;;;;;;;;;;;;5.73;100.00;100369.50;6155782;23;19912;-87
2023/05/26 13:12:41;;;;;;;;;;;;;;;5.89;100.00;100376.25;6153950;23;19913;-87
2023/05/26 13:15:06;;;;;;;;;;;;;;;5.79;100.00;100372.00;6154166;23;20003;-85
2023/05/26 13:17:31;;;;;;;;;;;;;;;5.89;100.00;100363.09;6154306;23;19947;-86
2023/05/26 13:19:57;;;;;;;;;;;;;;;5.87;100.00;100364.91;6154373;23;19912;-85
2023/05/26 13:22:23;;;;;;;;;;;;;;;5.86;100.00;100357.88;6154119;23;19912;-85
2023/05/26 13:24:50;;;;;;;;;;;;;;;5.87;100.00;100364.00;6153828;23;20604;-84
2023/05/26 13:27:16;;;;;;;;;;;;;;;5.78;100.00;100365.88;6153815;23;19917;-86
2023/05/26 13:29:41;;;;;;;;;;;;;;;5.79;100.00;100356.22;6155831;23;20233;-84
2023/05/26 13:32:09;;;;;;;;;;;;;;;5.89;100.00;100357.84;6154187;23;19913;-84
2023/05/26 13:34:34;;;;;;;;;;;;;;;5.89;100.00;100359.59;6155495;23;19916;-85
2023/05/26 13:37:00;;;;;;;;;;;;;;;5.80;100.00;100342.19;6153875;23;20222;-87
2023/05/26 13:39:25;;;;;;;;;;;;;;;5.80;100.00;100342.19;6155449;23;19920;-84
2023/05/26 13:41:50;;;;;;;;;;;;;;;5.88;100.00;100342.94;6155182;23;19916;-85
2023/05/26 13:44:15;;;;;;;;;;;;;;;5.82;100.00;100353.56;6155398;23;19923;-84
2023/05/26 13:46:46;;;;;;;;;;;;;;;5.77;100.00;100347.50;6154363;23;20325;-86
2023/05/26 13:49:19;;;;;;;;;;;;;;;5.75;100.00;100349.28;6159142;23;19920;-86
2023/05/26 13:51:44;;;;;;;;;;;;;;;5.88;100.00;100353.47;6158730;23;19913;-85
2023/05/26 13:54:10;;;;;;;;;;;;;;;5.81;100.00;100344.81;6185039;23;19913;-84
2023/05/26 13:56:35;;;;;;;;;;;;;;;5.95;100.00;100347.25;6185028;23;19948;-83
2023/05/26 13:59:00;;;;;;;;;;;;;;;14.32;100.00;100329.41;6158874;23;19912;-88
2023/05/26 14:01:28;;;;;;;;;;;;;;;7.94;100.00;100334.72;6183706;23;20240;-88
2023/05/26 14:09:24;;;;;;;;;;;;;;;6.19;100.00;100326.75;6186279;22;19927;-84
2023/05/26 14:11:55;;;;;;;;;;;;;;;6.24;100.00;100331.91;6157192;23;19932;-86
2023/05/26 14:14:30;;;;;;;;;;;;;;;5.99;100.00;100333.16;6158414;23;19912;-84
2023/05/26 14:17:13;;;;;;;;;;;;;;;5.99;100.00;100332.31;6183578;23;19912;-86
2023/05/26 14:19:41;;;;;;;;;;;;;;;5.98;100.00;100328.81;6158554;23;20485;-86
2023/05/26 14:22:11;;;;;;;;;;;;;;;6.03;100.00;100333.13;6158302;23;20321;-86
2023/05/26 14:24:41;;;;;;;;;;;;;;;6.03;100.00;100330.47;6158309;23;19959;-88
2023/05/26 14:27:26;;;;;;;;;;;;;;;6.03;100.00;100328.75;6185285;23;19920;-87
2023/05/26 14:30:02;;;;;;;;;;;;;;;5.97;100.00;100327.06;6158620;23;19916;-87
2023/05/26 14:32:33;;;;;;;;;;;;;;;5.91;100.00;100329.75;6157241;23;19974;-88
2023/05/26 14:35:10;;;;;;;;;;;;;;;;;;;;;
2023/05/26 14:43:53;;;;;;;;;;;;;;;5.86;100.00;100321.06;6153027;23;19920;-92
2023/05/26 14:46:38;;;;;;;;;;;;;;;;;;;;;
2023/05/26 14:49:37;;;;;;;;;;;;;;;;;;;;;
2023/05/26 14:55:11;;;;;;;;;;;;;;;6.13;100.00;100330.31;6095536;23;19987;-89
2023/05/26 14:57:47;;;;;;;;;;;;;;;5.96;100.00;100322.69;6158647;23;20284;-87
2023/05/26 15:00:35;;;;;;;;;;;;;;;5.91;100.00;100323.63;6158174;23;19916;-89
2023/05/26 15:03:07;;;;;;;;;;;;;;;5.95;100.00;100327.94;6038620;23;19914;-87
2023/05/26 15:05:50;;;;;;;;;;;;;;;5.89;100.00;100320.13;6064464;23;20010;-86
2023/05/26 15:11:12;;;;;;;;;;;;;;;6.04;100.00;100327.84;6168533;23;20328;-87
2023/05/26 15:16:42;;;;;;;;;;;;;;;5.96;100.00;100324.44;6149476;23;19912;-90
2023/05/26 15:19:22;;;;;;;;;;;;;;;5.99;100.00;100322.63;6157073;23;19982;-87
2023/05/26 15:22:11;;;;;;;;;;;;;;;5.89;100.00;100313.13;6183891;23;19939;-86
2023/05/26 15:24:35;;;;;;;;;;;;;;;5.91;100.00;100313.97;6182977;23;20305;-87
2023/05/26 15:27:05;;;;;;;;;;;;;;;5.95;100.00;100310.41;6158123;23;19964;-89
2023/05/26 15:29:35;;;;;;;;;;;;;;;5.90;100.00;100314.00;6183609;23;20351;-87
2023/05/26 15:32:05;;;;;;;;;;;;;;;5.91;100.00;100313.97;6156179;23;20280;-90
2023/05/26 15:34:30;;;;;;;;;;;;;;;5.83;100.00;100313.22;6183716;23;19912;-85
2023/05/26 15:37:04;;;;;;;;;;;;;;;5.81;100.00;100309.75;6157970;23;19919;-89
2023/05/26 15:42:46;;;;;;;;;;;;;;;6.03;100.00;100309.44;6184288;23;19955;-87
2023/05/26 15:45:40;;;;;;;;;;;;;;;5.93;100.00;100311.31;6186564;23;19912;-86
2023/05/26 15:48:08;;;;;;;;;;;;;;;5.82;100.00;100308.84;6040199;23;19924;-86
2023/05/26 15:50:50;;;;;;;;;;;;;;;5.90;100.00;100306.97;6175307;23;20313;-87
2023/05/26 15:53:35;;;;;;;;;;;;;;;5.90;100.00;100311.34;6185761;23;19962;-86
2023/05/26 15:56:28;;;;;;;;;;;;;;;5.93;100.00;100306.91;6160130;23;19912;-87
2023/05/26 15:59:14;;;;;;;;;;;;;;;;;;;;;
2023/05/26 16:05:04;;;;;;;;;;;;;;;6.14;100.00;100310.13;6154390;23;19924;-86
2023/05/26 16:08:00;;;;;;;;;;;;;;;;;;;;;
2023/05/26 16:13:55;;;;;;;;;;;;;;;;;;;;;
2023/05/26 16:16:14;;;;;;;;;;;;;;;5.82;100.00;100300.94;6177226;23;19916;-87
2023/05/26 16:19:13;;;;;;;;;;;;;;;;;;;;;
2023/05/26 16:28:11;;;;;;;;;;;;;;;;;;;;;
2023/05/26 16:30:46;;;;;;;;;;;;;;;5.83;100.00;100310.59;6153326;23;19984;-87
2023/05/26 16:33:11;;;;;;;;;;;;;;;5.89;100.00;100310.50;6152396;23;19916;-85
2023/05/26 16:35:39;;;;;;;;;;;;;;;5.87;100.00;100307.03;6128312;23;20344;-85
2023/05/26 16:38:12;;;;;;;;;;;;;;;5.88;100.00;100314.00;6148859;23;20232;-89
2023/05/26 16:41:00;;;;;;;;;;;;;;;;;;;;;
2023/05/26 16:43:46;;;;;;;;;;;;;;;;;;;;;
2023/05/26 16:46:25;;;;;;;;;;;;;;;6.00;100.00;100310.38;6184552;23;19987;-90
2023/05/26 16:49:13;;;;;;;;;;;;;;;5.90;100.00;100314.00;6151503;23;19920;-88
2023/05/26 16:55:10;;;;;;;;;;;;;;;;;;;;;
2023/05/26 17:04:21;;;;;;;;;;;;;;;;;;;;;
2023/05/26 17:10:23;;;;;;;;;;;;;;;;;;;;;
2023/05/26 17:16:09;;;;;;;;;;;;;;;;;;;;;
2023/05/26 17:19:05;;;;;;;;;;;;;;;;;;;;;
2023/05/26 17:21:40;;;;;;;;;;;;;;;5.93;100.00;100306.91;6125766;23;19995;-89
2023/05/26 17:26:51;;;;;;;;;;;;;;;5.85;100.00;100295.66;6186333;23;19909;-87
2023/05/26 17:29:20;;;;;;;;;;;;;;;5.90;100.00;100306.97;6158654;23;19919;-87
2023/05/26 17:32:16;;;;;;;;;;;;;;;5.93;100.00;100303.44;6156716;23;20329;-86
2023/05/26 17:34:42;;;;;;;;;;;;;;;5.81;100.00;100305.34;6181293;23;20277;-86
2023/05/26 17:37:10;;;;;;;;;;;;;;;6.03;100.00;100309.44;6185109;23;20327;-86
2023/05/26 17:39:51;;;;;;;;;;;;;;;5.91;100.00;100315.75;6184007;23;19913;-87
2023/05/26 17:45:35;;;;;;;;;;;;;;;;;;;;;
2023/05/26 17:48:01;;;;;;;;;;;;;;;5.91;100.00;100311.34;6183834;23;20287;-85
2023/05/26 17:50:29;;;;;;;;;;;;;;;5.88;100.00;100316.66;6184548;23;19959;-85
2023/05/26 17:56:55;;;;;;;;;;;;;;;;;;;;;
2023/05/26 17:59:26;;;;;;;;;;;;;;;5.90;100.00;100327.16;6064369;23;19985;-90
2023/05/26 18:05:05;;;;;;;;;;;;;;;5.86;100.00;100331.59;6064699;23;19921;-93
2023/05/26 18:20:52;;;;;;;;;;;;;;;;;;;;;
2023/05/26 18:26:11;;;;;;;;;;;;;;;;;;;;;
2023/05/26 18:28:42;;;;;;;;;;;;;;;5.87;100.00;100349.13;6154012;23;20295;-87
2023/05/26 18:34:19;;;;;;;;;;;;;;;5.81;100.00;100349.19;6066280;23;19966;-87
2023/05/26 18:37:07;;;;;;;;;;;;;;;5.78;100.00;100358.00;6154701;23;19919;-88
2023/05/26 18:43:11;;;;;;;;;;;;;;;;;;;;;
2023/05/26 18:54:53;;;;;;;;;;;;;;;5.78;100.00;100359.75;6035690;23;19966;-90
2023/05/26 18:59:52;;;;;;;;;;;;;;;5.80;100.00;100357.97;6184962;23;19979;-92
2023/05/26 19:02:58;;;;;;;;;;;;;;;5.78;100.00;100359.75;6154940;23;19988;-90
2023/05/26 19:11:27;;;;;;;;;;;;;;;;;;;;;
2023/05/26 19:17:07;;;;;;;;;;;;;;;5.75;100.00;100383.47;6035226;23;19914;-88
2023/05/26 19:28:26;;;;;;;;;;;;;;;5.77;100.00;100385.16;6182565;23;19943;-86
2023/05/26 19:30:52;;;;;;;;;;;;;;;5.78;100.00;100391.31;6157713;23;19959;-84
2023/05/26 19:33:19;;;;;;;;;;;;;;;5.73;100.00;100387.88;6185429;23;19908;-87
2023/05/26 19:35:47;;;;;;;;;;;;;;;5.72;100.00;100389.63;6186088;23;19923;-83
2023/05/26 19:38:15;;;;;;;;;;;;;;;5.73;100.00;100387.88;6185970;23;19942;-85
2023/05/26 19:40:54;;;;;;;;;;;;;;;;;;;;;
2023/05/26 19:43:20;;;;;;;;;;;;;;;5.70;100.00;100386.16;6086477;23;19983;-90
2023/05/26 19:49:06;;;;;;;;;;;;;;;5.70;100.00;100393.19;6170508;23;19912;-90
2023/05/26 19:52:10;;;;;;;;;;;;;;;5.71;100.00;100393.16;6126069;23;19908;-88
2023/05/26 19:54:46;;;;;;;;;;;;;;;5.63;100.00;100398.53;6087514;23;19920;-92
2023/05/26 19:57:14;;;;;;;;;;;;;;;5.71;100.00;100400.16;6159959;23;19908;-87
2023/05/26 19:59:40;;;;;;;;;;;;;;;5.72;100.00;100396.66;6185831;23;19943;-88
2023/05/26 20:02:11;;;;;;;;;;;;;;;9.03;100.00;100391.88;6185039;23;20276;-91
2023/05/26 20:04:59;;;;;;;;;;;;;;;6.41;100.00;100402.72;6186275;23;19916;-89
2023/05/26 20:14:18;;;;;;;;;;;;;;;5.76;100.00;100403.59;6037624;23;19910;-93
2023/05/26 20:16:56;;;;;;;;;;;;;;;;;;;;;
2023/05/26 20:25:02;;;;;;;;;;;;;;;5.69;100.00;100407.22;6158154;23;20249;-88
2023/05/26 20:34:06;;;;;;;;;;;;;;;5.63;100.00;100414.31;5981993;23;19919;-89
2023/05/26 20:36:35;;;;;;;;;;;;;;;5.69;100.00;100412.47;6032594;23;19918;-85
2023/05/26 20:39:20;;;;;;;;;;;;;;;5.62;100.00;100415.19;6040521;23;19914;-88
2023/05/26 20:42:10;;;;;;;;;;;;;;;5.67;100.00;100415.13;6066258;23;19933;-94
2023/05/26 20:48:41;;;;;;;;;;;;;;;;;;;;;
2023/05/26 20:51:16;;;;;;;;;;;;;;;5.66;100.00;100405.47;5952526;24;19990;-88
2023/05/26 20:57:41;;;;;;;;;;;;;;;;;;;;;
2023/05/26 21:03:20;;;;;;;;;;;;;;;5.67;100.00;100414.25;6092495;23;19913;-86
2023/05/26 21:05:48;;;;;;;;;;;;;;;5.61;100.00;100418.69;6093990;23;19924;-89
2023/05/26 21:08:29;;;;;;;;;;;;;;;5.61;100.00;100417.81;6094094;23;20039;-92
2023/05/26 21:11:14;;;;;;;;;;;;;;;5.65;100.00;100419.53;6094643;23;19989;-90
2023/05/26 21:14:14;;;;;;;;;;;;;;;5.60;100.00;100427.47;6070334;23;19964;-88
2023/05/26 21:17:05;;;;;;;;;;;;;;;5.62;100.00;100425.69;6067725;23;20239;-90
2023/05/26 21:19:30;;;;;;;;;;;;;;;5.57;100.00;100418.78;6093197;23;19917;-86
2023/05/26 21:25:24;;;;;;;;;;;;;;;5.60;100.00;100419.59;5978610;23;19938;-85
2023/05/26 21:27:54;;;;;;;;;;;;;;;5.55;100.00;100429.31;6065628;23;20302;-87
2023/05/26 21:30:31;;;;;;;;;;;;;;;;;;;;;
2023/05/26 21:33:04;;;;;;;;;;;;;;;5.53;100.00;100427.56;6092396;23;19996;-87
2023/05/26 21:35:55;;;;;;;;;;;;;;;;;;;;;
2023/05/26 21:38:21;;;;;;;;;;;;;;;5.55;100.00;100429.31;6093162;23;20008;-88